createdAt,value
2024-01-15T00:01:02.855Z,2.13
2024-01-15T00:03:06.913Z,2.21
2024-01-15T00:05:10.611Z,2.04
2024-01-15T00:07:12.400Z,2.22
2024-01-15T00:09:17.207Z,1.97
2024-01-15T00:11:22.592Z,2.01
2024-01-15T00:13:26.824Z,2.11
2024-01-15T00:15:30.523Z,2.11
2024-01-15T00:17:34.248Z,2.02
2024-01-15T00:19:38.317Z,2.04
2024-01-15T00:21:44.178Z,2.11
2024-01-15T00:23:47.877Z,1.97
2024-01-15T00:25:52.733Z,2.14
2024-01-15T00:27:55.680Z,2.05
2024-01-15T00:29:59.959Z,2.02
2024-01-15T00:32:03.436Z,2.05
2024-01-15T00:34:06.807Z,2.05
2024-01-15T00:36:10.380Z,1.78
2024-01-15T00:38:13.423Z,1.92
2024-01-15T00:40:17.323Z,2.13
2024-01-15T00:42:20.695Z,2.07
2024-01-15T00:44:25.167Z,2.14
2024-01-15T00:46:30.800Z,2.09
2024-01-15T00:48:34.124Z,1.86
2024-01-15T00:50:37.343Z,2.16
2024-01-15T00:52:40.342Z,2.09
2024-01-15T00:54:42.407Z,2.10
2024-01-15T00:56:47.872Z,1.92
2024-01-15T00:58:49.657Z,2.15
2024-01-15T01:00:52.797Z,2.06
2024-01-15T01:02:57.140Z,1.92
2024-01-15T01:04:59.938Z,2.04
2024-01-15T01:07:02.902Z,2.09
2024-01-15T01:09:06.147Z,2.03
2024-01-15T01:11:11.061Z,1.71
2024-01-15T01:13:14.011Z,1.98
2024-01-15T01:15:17.200Z,1.85
2024-01-15T01:17:19.307Z,1.51
2024-01-15T01:19:24.179Z,1.75
2024-01-15T01:21:27.403Z,1.50
2024-01-15T01:23:30.754Z,1.66
2024-01-15T01:25:34.188Z,1.69
2024-01-15T01:27:37.975Z,1.53
2024-01-15T01:29:41.229Z,1.71
2024-01-15T01:31:47.376Z,1.74
2024-01-15T01:33:49.511Z,1.82
2024-01-15T01:35:54.851Z,1.68
2024-01-15T01:37:58.000Z,1.72
2024-01-15T01:40:02.636Z,1.67
2024-01-15T01:42:06.661Z,1.77
2024-01-15T01:44:09.795Z,1.76
2024-01-15T01:46:13.373Z,1.67
2024-01-15T01:48:16.624Z,1.48
2024-01-15T01:50:19.787Z,1.52
2024-01-15T01:52:24.585Z,1.45
2024-01-15T01:54:29.918Z,1.52
2024-01-15T01:56:34.761Z,1.41
2024-01-15T01:58:37.825Z,1.40
2024-01-15T02:00:41.316Z,1.48
2024-01-15T02:02:45.389Z,1.33
2024-01-15T02:04:48.483Z,1.25
2024-01-15T02:06:51.741Z,1.53
2024-01-15T02:08:56.350Z,1.48
2024-01-15T02:11:00.484Z,1.39
2024-01-15T02:13:02.332Z,1.33
2024-01-15T02:15:05.614Z,1.39
2024-01-15T02:17:11.645Z,1.48
2024-01-15T02:19:18.696Z,1.46
2024-01-15T02:21:21.966Z,1.61
2024-01-15T02:23:26.125Z,1.63
2024-01-15T02:25:27.842Z,1.64
2024-01-15T02:27:31.381Z,1.68
2024-01-15T02:29:34.288Z,1.61
2024-01-15T02:31:36.708Z,1.54
2024-01-15T02:33:39.897Z,1.58
2024-01-15T02:35:44.293Z,1.58
2024-01-15T02:37:46.047Z,1.66
2024-01-15T02:39:51.811Z,1.51
2024-01-15T02:41:57.249Z,1.64
2024-01-15T02:44:00.487Z,1.61
2024-01-15T02:46:03.222Z,1.62
2024-01-15T02:48:05.624Z,1.59
2024-01-15T02:50:09.356Z,1.60
2024-01-15T02:52:13.175Z,1.65
2024-01-15T02:54:15.976Z,1.46
2024-01-15T02:56:20.501Z,1.68
2024-01-15T02:58:23.403Z,1.71
2024-01-15T03:00:26.362Z,1.66
2024-01-15T03:02:29.546Z,1.64
2024-01-15T03:04:32.457Z,1.77
2024-01-15T03:06:34.353Z,1.68
2024-01-15T03:08:37.662Z,1.72
2024-01-15T03:10:40.722Z,1.74
2024-01-15T03:12:44.379Z,1.66
2024-01-15T03:14:48.920Z,1.71
2024-01-15T03:16:51.977Z,1.75
2024-01-15T03:18:54.744Z,1.65
2024-01-15T03:20:57.579Z,1.77
2024-01-15T03:23:00.320Z,1.71
2024-01-15T03:25:03.279Z,1.84
2024-01-15T03:27:06.773Z,1.82
2024-01-15T03:29:11.291Z,1.74
2024-01-15T03:31:14.231Z,1.77
2024-01-15T03:33:17.703Z,1.74
2024-01-15T03:35:20.881Z,1.74
2024-01-15T03:37:26.509Z,1.75
2024-01-15T03:39:29.237Z,1.54
2024-01-15T03:41:32.362Z,1.77
2024-01-15T03:43:35.209Z,1.69
2024-01-15T03:45:39.304Z,1.68
2024-01-15T03:47:43.107Z,1.57
2024-01-15T03:49:45.980Z,1.55
2024-01-15T03:51:49.080Z,1.72
2024-01-15T03:53:51.236Z,1.69
2024-01-15T03:55:54.564Z,1.72
2024-01-15T03:58:00.165Z,1.56
2024-01-15T04:00:02.661Z,1.65
2024-01-15T04:02:06.914Z,1.72
2024-01-15T04:04:09.761Z,1.71
2024-01-15T04:06:12.714Z,1.75
2024-01-15T04:08:15.474Z,1.81
2024-01-15T04:10:18.169Z,1.78
2024-01-15T04:12:21.021Z,1.77
2024-01-15T04:14:24.067Z,1.70
2024-01-15T04:16:26.929Z,1.76
2024-01-15T04:18:31.392Z,1.83
2024-01-15T04:20:34.756Z,1.82
2024-01-15T04:22:39.968Z,1.80
2024-01-15T04:24:43.477Z,1.65
2024-01-15T04:26:47.484Z,1.70
2024-01-15T04:28:50.643Z,1.84
2024-01-15T04:30:54.153Z,1.85
2024-01-15T04:32:57.101Z,1.78
2024-01-15T04:35:01.574Z,1.66
2024-01-15T04:37:06.606Z,1.87
2024-01-15T04:39:09.619Z,1.72
2024-01-15T04:41:13.947Z,1.75
2024-01-15T04:43:17.277Z,1.81
2024-01-15T04:45:20.935Z,1.84
2024-01-15T04:47:23.801Z,1.75
2024-01-15T04:49:27.829Z,1.31
2024-01-15T04:51:32.280Z,1.82
2024-01-15T04:53:35.281Z,1.87
2024-01-15T04:55:38.516Z,1.86
2024-01-15T04:57:42.819Z,1.90
2024-01-15T04:59:45.879Z,1.37
2024-01-15T05:01:50.811Z,1.83
2024-01-15T05:03:55.532Z,1.83
2024-01-15T05:06:00.419Z,1.86
2024-01-15T05:08:05.017Z,1.84
2024-01-15T05:10:12.198Z,1.97
2024-01-15T05:12:15.703Z,1.36
2024-01-15T05:14:18.497Z,1.94
2024-01-15T05:16:21.233Z,1.95
2024-01-15T05:18:23.167Z,2.01
2024-01-15T05:20:26.655Z,1.98
2024-01-15T05:22:30.398Z,1.86
2024-01-15T05:24:34.065Z,1.98
2024-01-15T05:26:36.927Z,1.97
2024-01-15T05:28:40.156Z,1.96
2024-01-15T05:30:43.434Z,1.88
2024-01-15T05:32:47.785Z,1.89
2024-01-15T05:34:50.657Z,1.93
2024-01-15T05:36:53.678Z,1.80
2024-01-15T05:38:56.557Z,1.93
2024-01-15T05:41:02.096Z,1.75
2024-01-15T05:43:03.989Z,1.95
2024-01-15T05:45:07.838Z,1.90
2024-01-15T05:47:11.472Z,1.86
2024-01-15T05:49:15.332Z,1.88
2024-01-15T05:51:19.008Z,2.02
2024-01-15T05:53:21.917Z,1.86
2024-01-15T05:55:24.652Z,1.76
2024-01-15T05:57:29.025Z,1.87
2024-01-15T05:59:34.761Z,1.94
2024-01-15T06:01:37.696Z,2.00
2024-01-15T06:03:41.260Z,1.80
2024-01-15T06:05:44.492Z,1.86
2024-01-15T06:07:47.416Z,1.91
2024-01-15T06:09:50.376Z,1.70
2024-01-15T06:11:52.875Z,1.86
2024-01-15T06:13:57.322Z,1.89
2024-01-15T06:16:06.721Z,1.97
2024-01-15T06:18:13.706Z,1.88
2024-01-15T06:20:17.479Z,1.89
2024-01-15T06:22:19.636Z,1.93
2024-01-15T06:24:22.497Z,2.01
2024-01-15T06:26:25.885Z,2.01
2024-01-15T06:28:28.819Z,2.09
2024-01-15T06:30:33.256Z,2.00
2024-01-15T06:32:36.121Z,1.88
2024-01-15T06:37:01.290Z,2.14
2024-01-15T06:39:08.067Z,1.65
2024-01-15T06:41:11.248Z,2.01
2024-01-15T06:43:14.859Z,1.98
2024-01-15T06:45:22.404Z,2.11
2024-01-15T06:47:37.295Z,2.18
2024-01-15T06:49:40.099Z,2.18
2024-01-15T06:51:44.185Z,2.06
2024-01-15T06:53:48.695Z,2.02
2024-01-15T06:55:52.783Z,1.73
2024-01-15T06:57:55.055Z,1.99
2024-01-15T06:59:58.175Z,1.96
2024-01-15T07:02:04.362Z,2.10
2024-01-15T07:04:09.486Z,2.11
2024-01-15T07:06:15.003Z,2.12
2024-01-15T07:08:19.534Z,1.88
2024-01-15T07:10:23.304Z,2.16
2024-01-15T07:12:28.538Z,2.13
2024-01-15T07:14:31.417Z,2.10
2024-01-15T07:16:37.929Z,2.16
2024-01-15T07:18:43.464Z,2.20
2024-01-15T07:20:50.140Z,2.29
2024-01-15T07:22:52.886Z,2.28
2024-01-15T07:24:56.833Z,2.29
2024-01-15T07:27:00.203Z,2.16
2024-01-15T07:29:02.952Z,2.50
2024-01-15T07:31:05.142Z,2.53
2024-01-15T07:33:08.734Z,2.84
2024-01-15T07:35:12.991Z,2.94
2024-01-15T07:37:17.599Z,2.85
2024-01-15T07:39:20.473Z,2.63
2024-01-15T07:41:23.276Z,2.45
2024-01-15T07:43:25.136Z,2.51
2024-01-15T07:45:27.872Z,2.52
2024-01-15T07:47:32.023Z,2.53
2024-01-15T07:49:36.616Z,2.26
2024-01-15T07:51:41.614Z,2.45
2024-01-15T07:53:46.012Z,2.39
2024-01-15T07:55:49.077Z,2.51
2024-01-15T07:57:59.089Z,2.18
2024-01-15T08:00:12.098Z,2.33
2024-01-15T08:02:15.507Z,2.42
2024-01-15T08:04:17.325Z,2.43
2024-01-15T08:06:20.595Z,2.36
2024-01-15T08:08:24.312Z,2.28
2024-01-15T08:10:31.033Z,2.52
2024-01-15T08:12:35.199Z,2.53
2024-01-15T08:14:40.073Z,2.53
2024-01-15T08:16:44.642Z,2.60
2024-01-15T08:18:49.080Z,2.47
2024-01-15T08:20:52.711Z,2.58
2024-01-15T08:22:55.913Z,2.00
2024-01-15T08:24:59.008Z,2.50
2024-01-15T08:27:03.518Z,2.52
2024-01-15T08:29:06.952Z,2.51
2024-01-15T08:31:08.829Z,2.53
2024-01-15T08:33:21.261Z,2.52
2024-01-15T08:35:26.433Z,2.51
2024-01-15T08:37:28.654Z,2.60
2024-01-15T08:39:32.438Z,2.55
2024-01-15T08:41:35.912Z,2.57
2024-01-15T08:43:40.800Z,2.50
2024-01-15T08:45:43.979Z,2.54
2024-01-15T08:47:46.750Z,2.46
2024-01-15T08:49:49.629Z,2.19
2024-01-15T08:51:53.820Z,2.67
2024-01-15T08:53:57.058Z,2.71
2024-01-15T08:56:00.179Z,2.64
2024-01-15T08:58:03.025Z,2.75
2024-01-15T09:00:09.987Z,2.63
2024-01-15T09:02:12.821Z,2.64
2024-01-15T09:04:15.802Z,2.62
2024-01-15T09:06:18.632Z,2.67
2024-01-15T09:08:20.365Z,2.65
2024-01-15T09:10:23.273Z,2.73
2024-01-15T09:12:27.719Z,2.66
2024-01-15T09:14:36.506Z,2.77
2024-01-15T09:16:40.813Z,2.64
2024-01-15T09:19:01.947Z,2.72
2024-01-15T09:21:06.180Z,2.66
2024-01-15T09:23:09.337Z,2.67
2024-01-15T09:25:11.265Z,2.70
2024-01-15T09:27:14.149Z,2.75
2024-01-15T09:29:18.955Z,2.61
2024-01-15T09:31:22.898Z,2.71
2024-01-15T09:33:27.292Z,2.56
2024-01-15T09:35:30.517Z,2.76
2024-01-15T09:37:42.295Z,2.89
2024-01-15T09:39:51.381Z,2.98
2024-01-15T09:41:55.949Z,2.82
2024-01-15T09:44:00.386Z,2.91
2024-01-15T09:46:03.762Z,2.82
2024-01-15T09:48:09.082Z,2.95
2024-01-15T09:50:13.469Z,3.15
2024-01-15T09:52:18.314Z,3.26
2024-01-15T09:54:21.060Z,3.38
2024-01-15T09:56:24.207Z,3.41
2024-01-15T09:58:26.474Z,2.73
2024-01-15T10:00:30.045Z,3.38
2024-01-15T10:02:33.061Z,3.22
2024-01-15T10:04:36.053Z,3.12
2024-01-15T10:06:42.339Z,3.26
2024-01-15T10:08:46.525Z,3.27
2024-01-15T10:10:49.986Z,3.26
2024-01-15T10:12:52.975Z,3.18
2024-01-15T10:14:57.265Z,3.27
2024-01-15T10:17:00.000Z,3.29
2024-01-15T10:19:02.101Z,2.90
2024-01-15T10:21:05.452Z,3.17
2024-01-15T10:23:11.881Z,3.30
2024-01-15T10:25:14.245Z,3.31
2024-01-15T10:27:20.441Z,3.07
2024-01-15T10:29:22.561Z,2.91
2024-01-15T10:31:28.051Z,3.33
2024-01-15T10:33:34.774Z,3.25
2024-01-15T10:35:39.577Z,3.48
2024-01-15T10:37:44.885Z,3.30
2024-01-15T10:39:50.490Z,3.15
2024-01-15T10:41:53.696Z,3.10
2024-01-15T10:43:56.663Z,3.24
2024-01-15T10:46:00.882Z,3.22
2024-01-15T10:48:05.415Z,3.18
2024-01-15T10:50:10.406Z,3.04
2024-01-15T10:52:13.709Z,3.07
2024-01-15T10:54:16.740Z,3.21
2024-01-15T10:56:20.984Z,3.19
2024-01-15T10:58:24.528Z,2.82
2024-01-15T11:00:28.614Z,3.11
2024-01-15T11:02:31.890Z,3.15
2024-01-15T11:04:35.033Z,3.19
2024-01-15T11:06:46.217Z,3.27
2024-01-15T11:08:51.170Z,3.30
2024-01-15T11:10:55.896Z,3.21
2024-01-15T11:13:00.161Z,3.37
2024-01-15T11:15:10.311Z,3.33
2024-01-15T11:17:12.642Z,3.27
2024-01-15T11:19:15.664Z,3.29
2024-01-15T11:21:28.701Z,3.14
2024-01-15T11:23:43.731Z,3.29
2024-01-15T11:25:46.750Z,3.27
2024-01-15T11:27:53.179Z,3.25
2024-01-15T11:30:07.962Z,3.34
2024-01-15T11:32:11.410Z,3.38
2024-01-15T11:34:16.473Z,3.25
2024-01-15T11:36:19.418Z,3.24
2024-01-15T11:38:31.631Z,3.10
2024-01-15T11:40:40.536Z,3.16
2024-01-15T11:42:43.496Z,3.03
2024-01-15T11:44:46.052Z,3.13
2024-01-15T11:46:59.954Z,3.10
2024-01-15T11:49:06.866Z,2.99
2024-01-15T11:51:10.602Z,2.98
2024-01-15T11:53:18.676Z,2.09
2024-01-15T11:55:24.397Z,2.19
2024-01-15T11:57:34.143Z,2.13
2024-01-15T11:59:37.059Z,2.00
2024-01-15T12:01:39.861Z,1.95
2024-01-15T12:03:44.233Z,1.89
2024-01-15T12:05:47.905Z,1.84
2024-01-15T12:07:52.558Z,1.85
2024-01-15T12:09:55.412Z,2.02
2024-01-15T12:12:06.829Z,2.14
2024-01-15T12:14:09.511Z,2.21
2024-01-15T12:16:12.902Z,2.27
2024-01-15T12:18:17.907Z,2.34
2024-01-15T12:20:21.890Z,2.36
2024-01-15T12:22:24.902Z,2.20
2024-01-15T12:24:27.720Z,2.33
2024-01-15T12:26:31.321Z,2.36
2024-01-15T12:28:33.343Z,2.39
2024-01-15T12:30:37.214Z,2.39
2024-01-15T12:32:40.064Z,2.42
2024-01-15T12:34:43.403Z,2.35
2024-01-15T12:36:49.431Z,2.36
2024-01-15T12:38:53.064Z,2.40
2024-01-15T12:40:55.876Z,2.38
2024-01-15T12:42:58.656Z,2.42
2024-01-15T12:45:02.201Z,2.17
2024-01-15T12:47:06.781Z,1.94
2024-01-15T12:49:11.776Z,2.07
2024-01-15T12:51:15.072Z,2.01
2024-01-15T12:53:20.039Z,1.69
2024-01-15T12:55:23.230Z,2.09
2024-01-15T12:57:29.292Z,1.92
2024-01-15T12:59:35.055Z,1.98
2024-01-15T13:01:38.493Z,2.06
2024-01-15T13:03:41.710Z,2.01
2024-01-15T13:05:46.415Z,2.08
2024-01-15T13:07:49.531Z,2.23
2024-01-15T13:09:54.980Z,2.35
2024-01-15T13:11:58.344Z,2.38
2024-01-15T13:14:01.457Z,2.14
2024-01-15T13:16:04.805Z,2.21
2024-01-15T13:18:11.340Z,2.23
2024-01-15T13:20:14.807Z,2.14
2024-01-15T13:22:18.053Z,2.03
2024-01-15T13:24:21.882Z,2.17
2024-01-15T13:26:26.256Z,2.00
2024-01-15T13:28:29.174Z,1.99
2024-01-15T13:30:30.955Z,2.26
2024-01-15T13:32:33.938Z,2.23
2024-01-15T13:34:36.860Z,2.31
2024-01-15T13:36:40.224Z,2.29
2024-01-15T13:38:45.492Z,2.26
2024-01-15T13:40:48.713Z,2.29
2024-01-15T13:42:53.793Z,1.98
2024-01-15T13:45:02.126Z,2.25
2024-01-15T13:47:06.852Z,2.13
2024-01-15T13:49:10.867Z,2.18
2024-01-15T13:51:15.746Z,2.09
2024-01-15T13:53:17.714Z,2.14
2024-01-15T13:55:21.464Z,2.17
2024-01-15T13:57:24.748Z,2.16
2024-01-15T13:59:29.696Z,2.23
2024-01-15T14:01:34.795Z,2.20
2024-01-15T14:03:38.165Z,2.25
2024-01-15T14:05:40.973Z,2.29
2024-01-15T14:07:44.485Z,2.22
2024-01-15T14:09:47.859Z,2.23
2024-01-15T14:11:50.081Z,2.16
2024-01-15T14:13:53.138Z,2.32
2024-01-15T14:15:58.155Z,2.33
2024-01-15T14:18:02.782Z,2.17
2024-01-15T14:20:07.909Z,2.15
2024-01-15T14:22:11.037Z,2.08
2024-01-15T14:24:15.041Z,2.02
2024-01-15T14:26:18.436Z,2.13
2024-01-15T14:28:20.709Z,2.24
2024-01-15T14:30:24.479Z,2.23
2024-01-15T14:32:28.673Z,2.20
2024-01-15T14:34:31.745Z,1.48
2024-01-15T14:36:34.785Z,2.15
2024-01-15T14:38:37.603Z,1.94
2024-01-15T14:40:40.381Z,2.16
2024-01-15T14:42:48.203Z,2.16
2024-01-15T14:44:50.970Z,2.14
2024-01-15T14:46:54.159Z,2.13
2024-01-15T14:48:58.385Z,2.16
2024-01-15T14:51:01.548Z,2.20
2024-01-15T14:53:05.655Z,2.08
2024-01-15T14:55:10.071Z,2.10
2024-01-15T14:57:13.040Z,2.09
2024-01-15T14:59:16.391Z,1.97
2024-01-15T15:01:21.158Z,2.06
2024-01-15T15:03:26.325Z,2.06
2024-01-15T15:05:30.824Z,2.02
2024-01-15T15:07:34.343Z,1.99
2024-01-15T15:09:38.773Z,1.79
2024-01-15T15:11:42.344Z,1.97
2024-01-15T15:13:46.159Z,2.00
2024-01-15T15:15:49.231Z,1.86
2024-01-15T15:17:52.001Z,1.90
2024-01-15T15:19:54.770Z,1.98
2024-01-15T15:22:00.087Z,1.94
2024-01-15T15:24:02.918Z,1.61
2024-01-15T15:26:06.032Z,1.78
2024-01-15T15:28:09.777Z,1.79
2024-01-15T15:30:12.023Z,1.78
2024-01-15T15:32:14.882Z,1.83
2024-01-15T15:34:17.899Z,1.81
2024-01-15T15:36:20.992Z,1.56
2024-01-15T15:38:25.349Z,1.78
2024-01-15T15:40:28.215Z,1.49
2024-01-15T15:42:31.262Z,1.75
2024-01-15T15:44:34.021Z,1.77
2024-01-15T15:46:35.705Z,1.77
2024-01-15T15:48:39.139Z,1.65
2024-01-15T15:50:42.007Z,1.71
2024-01-15T15:52:46.215Z,1.66
2024-01-15T15:54:50.484Z,1.66
2024-01-15T15:56:54.892Z,1.63
2024-01-15T15:58:58.244Z,1.60
2024-01-15T16:01:01.296Z,1.47
2024-01-15T16:03:04.309Z,1.55
2024-01-15T16:05:11.030Z,1.54
2024-01-15T16:07:15.512Z,1.47
2024-01-15T16:09:17.302Z,1.48
2024-01-15T16:11:21.599Z,1.48
2024-01-15T16:13:23.458Z,1.44
2024-01-15T16:15:29.064Z,1.28
2024-01-15T16:23:16.125Z,1.45
2024-01-15T16:23:31.028Z,1.44
2024-01-15T16:23:44.577Z,1.51
2024-01-15T16:25:18.393Z,1.50
2024-01-15T16:27:23.195Z,1.45
2024-01-15T16:29:28.373Z,1.39
2024-01-15T16:31:31.194Z,1.40
2024-01-15T16:33:34.699Z,1.23
2024-01-15T16:35:38.572Z,1.46
2024-01-15T16:37:41.992Z,1.36
2024-01-15T16:39:45.234Z,1.26
2024-01-15T16:41:47.877Z,1.39
2024-01-15T16:43:52.441Z,1.38
2024-01-15T16:45:54.240Z,1.45
2024-01-15T16:47:57.092Z,1.29
2024-01-15T16:50:01.177Z,1.36
2024-01-15T16:52:06.525Z,1.28
2024-01-15T16:54:10.011Z,1.33
2024-01-15T16:56:13.129Z,1.14
2024-01-15T16:58:16.344Z,1.29
2024-01-15T17:00:20.324Z,1.19
2024-01-15T17:02:22.035Z,1.33
2024-01-15T17:04:25.212Z,1.30
2024-01-15T17:06:27.923Z,1.22
2024-01-15T17:08:29.696Z,1.04
2024-01-15T17:10:32.771Z,1.25
2024-01-15T17:12:35.502Z,1.00
2024-01-15T17:14:38.387Z,1.22
2024-01-15T17:16:42.610Z,1.15
2024-01-15T17:18:45.896Z,1.25
2024-01-15T17:20:49.352Z,1.22
2024-01-15T17:22:52.281Z,0.79
2024-01-15T17:24:53.991Z,1.14
2024-01-15T17:26:56.700Z,1.22
2024-01-15T17:28:59.423Z,1.09
2024-01-15T17:31:02.309Z,1.24
2024-01-15T17:33:07.420Z,1.11
2024-01-15T17:35:10.701Z,1.30
2024-01-15T17:37:12.568Z,1.31
2024-01-15T17:39:16.844Z,1.29
2024-01-15T17:41:21.305Z,1.23
2024-01-15T17:43:24.047Z,1.39
2024-01-15T17:45:27.793Z,1.29
2024-01-15T17:47:29.555Z,1.39
2024-01-15T17:49:34.491Z,1.39
2024-01-15T17:51:36.333Z,1.19
2024-01-15T17:53:41.232Z,1.23
2024-01-15T17:55:43.415Z,1.17
2024-01-15T17:57:46.290Z,1.32
2024-01-15T17:59:49.103Z,1.28
2024-01-15T18:01:52.824Z,1.32
2024-01-15T18:03:57.548Z,1.37
2024-01-15T18:06:04.464Z,1.16
2024-01-15T18:08:06.589Z,1.23
2024-01-15T18:10:11.011Z,1.29
2024-01-15T18:12:12.732Z,1.19
2024-01-15T18:14:16.722Z,1.29
2024-01-15T18:16:23.840Z,1.22
2024-01-15T18:18:27.701Z,1.18
2024-01-15T18:20:31.847Z,1.29
2024-01-15T18:22:36.268Z,1.22
2024-01-15T18:24:45.592Z,1.22
2024-01-15T18:26:50.562Z,1.26
2024-01-15T18:28:54.618Z,1.16
2024-01-15T18:30:57.544Z,0.97
2024-01-15T18:33:03.751Z,0.90
2024-01-15T18:35:06.585Z,0.90
2024-01-15T18:37:12.396Z,0.77
2024-01-15T18:39:17.920Z,0.65
2024-01-15T18:41:25.412Z,0.58
2024-01-15T18:43:31.236Z,0.51
2024-01-15T18:45:36.136Z,0.43
2024-01-15T18:47:40.094Z,0.51
2024-01-15T18:49:44.971Z,0.59
2024-01-15T18:51:54.008Z,0.48
2024-01-15T18:53:58.536Z,0.52
2024-01-15T18:56:04.113Z,0.70
2024-01-15T18:58:06.965Z,0.73
2024-01-15T19:00:12.013Z,0.70
2024-01-15T19:02:14.868Z,0.63
2024-01-15T19:04:19.205Z,0.66
2024-01-15T19:06:22.554Z,0.69
2024-01-15T19:08:24.262Z,0.52
2024-01-15T19:10:27.481Z,0.66
2024-01-15T19:12:32.077Z,0.65
2024-01-15T19:14:35.499Z,0.68
2024-01-15T19:16:40.085Z,0.67
2024-01-15T19:18:43.020Z,0.60
2024-01-15T19:20:45.927Z,0.43
2024-01-15T19:22:49.853Z,0.57
2024-01-15T19:24:54.764Z,0.64
2024-01-15T19:26:58.373Z,0.62
2024-01-15T19:29:02.539Z,0.51
2024-01-15T19:31:05.251Z,0.57
2024-01-15T19:33:08.633Z,0.51
2024-01-15T19:35:11.271Z,0.47
2024-01-15T19:37:15.918Z,0.53
2024-01-15T19:39:20.427Z,0.57
2024-01-15T19:41:23.797Z,0.52
2024-01-15T19:43:26.916Z,0.49
2024-01-15T19:45:30.135Z,0.53
2024-01-15T19:47:33.400Z,0.50
2024-01-15T19:49:36.427Z,0.47
2024-01-15T19:51:40.468Z,0.47
2024-01-15T19:53:43.652Z,0.42
2024-01-15T19:55:46.339Z,0.28
2024-01-15T19:57:56.755Z,0.40
2024-01-15T19:59:59.770Z,0.48
2024-01-15T20:02:03.948Z,0.46
2024-01-15T20:04:07.235Z,0.39
2024-01-15T20:06:12.570Z,0.24
2024-01-15T20:08:15.763Z,0.34
2024-01-15T20:10:19.267Z,0.29
2024-01-15T20:12:22.770Z,0.24
2024-01-15T20:14:27.056Z,0.39
2024-01-15T20:16:29.924Z,0.39
2024-01-15T20:18:34.329Z,0.33
2024-01-15T20:20:37.430Z,0.42
2024-01-15T20:22:40.308Z,0.24
2024-01-15T20:24:43.178Z,0.02
2024-01-15T20:26:46.070Z,0.35
2024-01-15T20:28:48.028Z,0.37
2024-01-15T20:30:51.005Z,0.27
2024-01-15T20:33:02.410Z,0.21
2024-01-15T20:35:08.114Z,-0.04
2024-01-15T20:37:10.856Z,0.17
2024-01-15T20:39:14.741Z,-0.03
2024-01-15T20:41:18.208Z,0.13
2024-01-15T20:43:21.220Z,0.03
2024-01-15T20:45:25.459Z,0.09
2024-01-15T20:47:28.617Z,0.15
2024-01-15T20:49:31.374Z,0.12
2024-01-15T20:51:37.852Z,0.03
2024-01-15T20:53:40.918Z,-0.01
2024-01-15T20:55:45.830Z,0.13
2024-01-15T20:57:48.533Z,0.04
2024-01-15T20:59:51.990Z,0.08
2024-01-15T21:01:54.928Z,-0.02
2024-01-15T21:03:57.564Z,0.09
2024-01-15T21:05:59.741Z,0.12
2024-01-15T21:08:04.497Z,-0.16
2024-01-15T21:10:07.377Z,0.09
2024-01-15T21:12:11.461Z,0.06
2024-01-15T21:14:19.494Z,0.12
2024-01-15T21:16:22.827Z,0.08
2024-01-15T21:18:25.763Z,0.05
2024-01-15T21:20:28.993Z,0.00
2024-01-15T21:22:31.918Z,0.00
2024-01-15T21:24:37.595Z,0.03
2024-01-15T21:26:39.651Z,-0.05
2024-01-15T21:28:42.628Z,-0.01
2024-01-15T21:30:47.550Z,0.08
2024-01-15T21:32:50.666Z,0.02
2024-01-15T21:34:53.540Z,-0.03
2024-01-15T21:36:56.713Z,0.01
2024-01-15T21:39:00.290Z,-0.03
2024-01-15T21:41:05.055Z,-0.04
2024-01-15T21:43:08.195Z,-0.10
2024-01-15T21:45:11.320Z,-0.30
2024-01-15T21:47:15.458Z,-0.02
2024-01-15T21:49:18.430Z,0.02
2024-01-15T21:51:22.242Z,0.07
2024-01-15T21:53:25.006Z,0.10
2024-01-15T21:55:28.007Z,0.07
2024-01-15T21:57:32.503Z,-0.18
2024-01-15T21:59:35.521Z,0.03
2024-01-15T22:01:38.408Z,0.12
2024-01-15T22:03:40.301Z,0.10
2024-01-15T22:05:43.821Z,0.10
2024-01-15T22:07:47.904Z,-0.06
2024-01-15T22:09:49.662Z,0.01
2024-01-15T22:11:52.314Z,-0.07
2024-01-15T22:13:55.662Z,-0.16
2024-01-15T22:15:58.709Z,-0.02
2024-01-15T22:18:04.075Z,-0.06
2024-01-15T22:20:10.170Z,-0.08
2024-01-15T22:22:12.841Z,-0.16
2024-01-15T22:24:16.518Z,-0.10
2024-01-15T22:26:20.097Z,-0.19
2024-01-15T22:28:23.785Z,-0.22
2024-01-15T22:30:28.368Z,-0.23
2024-01-15T22:32:32.217Z,-0.30
2024-01-15T22:34:35.596Z,-0.15
2024-01-15T22:36:39.065Z,-0.32
2024-01-15T22:38:42.529Z,-0.21
2024-01-15T22:40:45.408Z,-0.15
2024-01-15T22:42:49.159Z,-0.15
2024-01-15T22:44:52.861Z,-0.24
2024-01-15T22:46:57.443Z,-0.40
2024-01-15T22:49:00.435Z,-0.17
2024-01-15T22:51:04.550Z,-0.17
2024-01-15T22:53:07.491Z,-0.27
2024-01-15T22:55:10.727Z,-0.21
2024-01-15T22:57:14.169Z,-0.20
2024-01-15T22:59:22.786Z,-0.07
2024-01-15T23:01:26.242Z,-0.12
2024-01-15T23:03:30.474Z,-0.08
2024-01-15T23:05:33.780Z,-0.20
2024-01-15T23:07:36.455Z,-0.09
2024-01-15T23:09:39.315Z,-0.08
2024-01-15T23:11:42.267Z,-0.17
2024-01-15T23:13:44.954Z,-0.84
2024-01-15T23:15:47.648Z,-0.37
2024-01-15T23:17:50.331Z,-0.19
2024-01-15T23:19:54.511Z,-0.29
2024-01-15T23:21:57.469Z,-0.17
2024-01-15T23:24:00.181Z,-0.10
2024-01-15T23:26:03.046Z,0.03
2024-01-15T23:28:07.278Z,-0.09
2024-01-15T23:30:11.551Z,-0.13
2024-01-15T23:32:14.268Z,-0.09
2024-01-15T23:34:17.098Z,-0.34
2024-01-15T23:36:21.193Z,-0.14
2024-01-15T23:38:23.940Z,-0.23
2024-01-15T23:40:26.966Z,-0.14
2024-01-15T23:42:28.753Z,-0.25
2024-01-15T23:44:31.602Z,-0.25
2024-01-15T23:46:33.850Z,-0.20
2024-01-15T23:48:36.649Z,-0.36
2024-01-15T23:50:39.642Z,-0.09
2024-01-15T23:52:43.791Z,-0.01
2024-01-15T23:54:45.624Z,-0.03
2024-01-15T23:56:48.425Z,-0.20
2024-01-15T23:58:50.624Z,-0.16
